sensor_id;sensor_type;location;lat;lon;timestamp;P1;durP1;ratioP1;P2;durP2;ratioP2
54993;SDS011;40891;47.242;8.648;2022-09-23T00:01:48;8.87;;;4.90;;
54993;SDS011;40891;47.242;8.648;2022-09-23T00:04:14;7.00;;;4.40;;
54993;SDS011;40891;47.242;8.648;2022-09-23T00:06:39;8.23;;;5.00;;
54993;SDS011;40891;47.242;8.648;2022-09-23T00:09:05;6.63;;;4.90;;
54993;SDS011;40891;47.242;8.648;2022-09-23T00:11:30;7.03;;;5.13;;
54993;SDS011;40891;47.242;8.648;2022-09-23T00:13:57;7.73;;;5.07;;
54993;SDS011;40891;47.242;8.648;2022-09-23T00:16:28;8.27;;;5.10;;
54993;SDS011;40891;47.242;8.648;2022-09-23T00:18:56;6.43;;;4.73;;
54993;SDS011;40891;47.242;8.648;2022-09-23T00:21:22;8.57;;;5.00;;
54993;SDS011;40891;47.242;8.648;2022-09-23T00:23:49;8.20;;;5.33;;
54993;SDS011;40891;47.242;8.648;2022-09-23T00:26:15;7.30;;;4.73;;
54993;SDS011;40891;47.242;8.648;2022-09-23T00:28:42;9.57;;;5.23;;
54993;SDS011;40891;47.242;8.648;2022-09-23T00:31:09;7.63;;;4.67;;
54993;SDS011;40891;47.242;8.648;2022-09-23T00:33:39;5.63;;;5.03;;
54993;SDS011;40891;47.242;8.648;2022-09-23T00:36:05;7.60;;;4.73;;
54993;SDS011;40891;47.242;8.648;2022-09-23T00:38:34;7.77;;;5.33;;
54993;SDS011;40891;47.242;8.648;2022-09-23T00:41:01;7.60;;;4.90;;
54993;SDS011;40891;47.242;8.648;2022-09-23T00:43:36;9.97;;;4.70;;
54993;SDS011;40891;47.242;8.648;2022-09-23T00:46:06;7.20;;;4.90;;
54993;SDS011;40891;47.242;8.648;2022-09-23T00:48:33;8.50;;;5.03;;
54993;SDS011;40891;47.242;8.648;2022-09-23T00:51:01;7.07;;;4.57;;
54993;SDS011;40891;47.242;8.648;2022-09-23T00:53:26;7.73;;;4.97;;
54993;SDS011;40891;47.242;8.648;2022-09-23T00:55:56;9.67;;;4.87;;
54993;SDS011;40891;47.242;8.648;2022-09-23T00:58:31;8.07;;;5.17;;
54993;SDS011;40891;47.242;8.648;2022-09-23T01:01:00;7.07;;;4.57;;
54993;SDS011;40891;47.242;8.648;2022-09-23T01:03:26;8.73;;;4.63;;
54993;SDS011;40891;47.242;8.648;2022-09-23T01:05:52;9.73;;;4.80;;
54993;SDS011;40891;47.242;8.648;2022-09-23T01:08:18;8.80;;;4.90;;
54993;SDS011;40891;47.242;8.648;2022-09-23T01:10:55;7.23;;;4.87;;
54993;SDS011;40891;47.242;8.648;2022-09-23T01:19:22;6.90;;;4.83;;
54993;SDS011;40891;47.242;8.648;2022-09-23T01:22:00;8.60;;;5.00;;
54993;SDS011;40891;47.242;8.648;2022-09-23T01:24:42;8.17;;;5.10;;
54993;SDS011;40891;47.242;8.648;2022-09-23T01:27:24;10.63;;;5.93;;
54993;SDS011;40891;47.242;8.648;2022-09-23T01:35:51;8.77;;;5.27;;
54993;SDS011;40891;47.242;8.648;2022-09-23T01:38:35;7.93;;;4.93;;
54993;SDS011;40891;47.242;8.648;2022-09-23T01:41:17;6.67;;;5.00;;
54993;SDS011;40891;47.242;8.648;2022-09-23T01:43:53;8.07;;;5.70;;
54993;SDS011;40891;47.242;8.648;2022-09-23T01:49:11;7.77;;;5.33;;
54993;SDS011;40891;47.242;8.648;2022-09-23T01:51:57;7.40;;;5.43;;
54993;SDS011;40891;47.242;8.648;2022-09-23T01:54:31;7.47;;;5.20;;
54993;SDS011;40891;47.242;8.648;2022-09-23T01:57:07;7.33;;;4.90;;
54993;SDS011;40891;47.242;8.648;2022-09-23T01:59:49;8.37;;;4.67;;
54993;SDS011;40891;47.242;8.648;2022-09-23T02:04:57;5.10;;;4.60;;
54993;SDS011;40891;47.242;8.648;2022-09-23T02:07:31;6.73;;;4.80;;
54993;SDS011;40891;47.242;8.648;2022-09-23T02:10:06;10.17;;;5.07;;
54993;SDS011;40891;47.242;8.648;2022-09-23T02:12:49;12.23;;;5.13;;
54993;SDS011;40891;47.242;8.648;2022-09-23T02:15:18;7.67;;;5.53;;
54993;SDS011;40891;47.242;8.648;2022-09-23T02:18:07;8.03;;;5.50;;
54993;SDS011;40891;47.242;8.648;2022-09-23T02:20:38;6.87;;;4.73;;
54993;SDS011;40891;47.242;8.648;2022-09-23T02:23:05;15.83;;;5.73;;
54993;SDS011;40891;47.242;8.648;2022-09-23T02:25:59;7.57;;;5.03;;
54993;SDS011;40891;47.242;8.648;2022-09-23T02:31:30;7.50;;;5.17;;
54993;SDS011;40891;47.242;8.648;2022-09-23T02:37:35;7.10;;;5.37;;
54993;SDS011;40891;47.242;8.648;2022-09-23T02:42:44;7.07;;;5.03;;
54993;SDS011;40891;47.242;8.648;2022-09-23T02:45:16;9.13;;;5.60;;
54993;SDS011;40891;47.242;8.648;2022-09-23T02:47:42;8.97;;;5.53;;
54993;SDS011;40891;47.242;8.648;2022-09-23T02:50:11;7.27;;;5.67;;
54993;SDS011;40891;47.242;8.648;2022-09-23T02:52:36;8.10;;;5.30;;
54993;SDS011;40891;47.242;8.648;2022-09-23T02:55:03;8.40;;;5.40;;
54993;SDS011;40891;47.242;8.648;2022-09-23T02:57:29;10.87;;;5.83;;
54993;SDS011;40891;47.242;8.648;2022-09-23T02:59:55;7.43;;;4.97;;
54993;SDS011;40891;47.242;8.648;2022-09-23T03:07:35;9.50;;;5.80;;
54993;SDS011;40891;47.242;8.648;2022-09-23T03:10:21;8.37;;;5.97;;
54993;SDS011;40891;47.242;8.648;2022-09-23T03:15:48;8.00;;;5.80;;
54993;SDS011;40891;47.242;8.648;2022-09-23T03:18:24;7.40;;;5.67;;
54993;SDS011;40891;47.242;8.648;2022-09-23T03:21:13;9.57;;;6.27;;
54993;SDS011;40891;47.242;8.648;2022-09-23T03:23:46;10.87;;;5.70;;
54993;SDS011;40891;47.242;8.648;2022-09-23T03:26:18;11.10;;;5.57;;
54993;SDS011;40891;47.242;8.648;2022-09-23T03:28:46;7.57;;;5.37;;
54993;SDS011;40891;47.242;8.648;2022-09-23T03:31:14;7.10;;;5.50;;
54993;SDS011;40891;47.242;8.648;2022-09-23T03:33:42;7.60;;;5.40;;
54993;SDS011;40891;47.242;8.648;2022-09-23T03:36:13;6.90;;;5.30;;
54993;SDS011;40891;47.242;8.648;2022-09-23T03:39:03;12.97;;;5.63;;
54993;SDS011;40891;47.242;8.648;2022-09-23T03:41:40;6.77;;;5.33;;
54993;SDS011;40891;47.242;8.648;2022-09-23T03:44:15;9.03;;;5.50;;
54993;SDS011;40891;47.242;8.648;2022-09-23T03:46:41;8.33;;;5.60;;
54993;SDS011;40891;47.242;8.648;2022-09-23T03:49:15;7.67;;;5.10;;
54993;SDS011;40891;47.242;8.648;2022-09-23T03:51:51;9.97;;;4.93;;
54993;SDS011;40891;47.242;8.648;2022-09-23T03:54:17;13.13;;;5.50;;
54993;SDS011;40891;47.242;8.648;2022-09-23T03:56:43;7.33;;;4.97;;
54993;SDS011;40891;47.242;8.648;2022-09-23T03:59:08;7.87;;;4.93;;
54993;SDS011;40891;47.242;8.648;2022-09-23T04:01:34;14.17;;;5.33;;
54993;SDS011;40891;47.242;8.648;2022-09-23T04:03:59;9.30;;;4.73;;
54993;SDS011;40891;47.242;8.648;2022-09-23T04:06:25;8.57;;;4.90;;
54993;SDS011;40891;47.242;8.648;2022-09-23T04:08:50;8.60;;;5.33;;
54993;SDS011;40891;47.242;8.648;2022-09-23T04:11:15;10.03;;;5.70;;
54993;SDS011;40891;47.242;8.648;2022-09-23T04:13:40;7.87;;;5.03;;
54993;SDS011;40891;47.242;8.648;2022-09-23T04:16:06;6.17;;;5.20;;
54993;SDS011;40891;47.242;8.648;2022-09-23T04:18:31;9.97;;;5.73;;
54993;SDS011;40891;47.242;8.648;2022-09-23T04:20:57;6.97;;;5.63;;
54993;SDS011;40891;47.242;8.648;2022-09-23T04:23:24;6.53;;;5.13;;
54993;SDS011;40891;47.242;8.648;2022-09-23T04:25:50;8.80;;;5.63;;
54993;SDS011;40891;47.242;8.648;2022-09-23T04:28:16;9.83;;;5.70;;
54993;SDS011;40891;47.242;8.648;2022-09-23T04:30:41;8.33;;;5.67;;
54993;SDS011;40891;47.242;8.648;2022-09-23T04:33:08;8.97;;;5.60;;
54993;SDS011;40891;47.242;8.648;2022-09-23T04:35:35;8.40;;;5.80;;
54993;SDS011;40891;47.242;8.648;2022-09-23T04:38:02;8.73;;;6.90;;
54993;SDS011;40891;47.242;8.648;2022-09-23T04:40:28;11.10;;;6.80;;
54993;SDS011;40891;47.242;8.648;2022-09-23T04:42:53;10.63;;;7.17;;
54993;SDS011;40891;47.242;8.648;2022-09-23T04:45:19;9.53;;;5.73;;
54993;SDS011;40891;47.242;8.648;2022-09-23T04:47:44;8.13;;;5.40;;
54993;SDS011;40891;47.242;8.648;2022-09-23T04:50:09;15.73;;;6.30;;
54993;SDS011;40891;47.242;8.648;2022-09-23T04:52:35;6.70;;;5.50;;
54993;SDS011;40891;47.242;8.648;2022-09-23T04:55:00;12.40;;;6.30;;
54993;SDS011;40891;47.242;8.648;2022-09-23T04:57:26;9.70;;;5.87;;
54993;SDS011;40891;47.242;8.648;2022-09-23T04:59:52;8.77;;;6.27;;
54993;SDS011;40891;47.242;8.648;2022-09-23T05:02:20;8.97;;;6.33;;
54993;SDS011;40891;47.242;8.648;2022-09-23T05:04:45;12.80;;;6.60;;
54993;SDS011;40891;47.242;8.648;2022-09-23T05:07:10;8.67;;;6.50;;
54993;SDS011;40891;47.242;8.648;2022-09-23T05:09:36;11.00;;;6.93;;
54993;SDS011;40891;47.242;8.648;2022-09-23T05:12:02;10.43;;;6.63;;
54993;SDS011;40891;47.242;8.648;2022-09-23T05:14:28;8.77;;;6.20;;
54993;SDS011;40891;47.242;8.648;2022-09-23T05:16:53;11.80;;;6.53;;
54993;SDS011;40891;47.242;8.648;2022-09-23T05:19:18;8.97;;;6.03;;
54993;SDS011;40891;47.242;8.648;2022-09-23T05:21:44;9.43;;;6.53;;
54993;SDS011;40891;47.242;8.648;2022-09-23T05:24:10;9.73;;;7.07;;
54993;SDS011;40891;47.242;8.648;2022-09-23T05:26:36;13.17;;;6.90;;
54993;SDS011;40891;47.242;8.648;2022-09-23T05:29:02;12.77;;;6.73;;
54993;SDS011;40891;47.242;8.648;2022-09-23T05:31:28;12.50;;;7.83;;
54993;SDS011;40891;47.242;8.648;2022-09-23T05:33:55;12.77;;;7.10;;
54993;SDS011;40891;47.242;8.648;2022-09-23T05:36:22;15.00;;;8.10;;
54993;SDS011;40891;47.242;8.648;2022-09-23T05:38:48;13.80;;;7.60;;
54993;SDS011;40891;47.242;8.648;2022-09-23T05:41:14;12.83;;;7.57;;
54993;SDS011;40891;47.242;8.648;2022-09-23T05:43:41;9.97;;;6.83;;
54993;SDS011;40891;47.242;8.648;2022-09-23T05:46:08;12.73;;;7.97;;
54993;SDS011;40891;47.242;8.648;2022-09-23T05:48:36;11.13;;;7.87;;
54993;SDS011;40891;47.242;8.648;2022-09-23T05:51:02;11.67;;;7.60;;
54993;SDS011;40891;47.242;8.648;2022-09-23T05:53:32;15.03;;;7.67;;
54993;SDS011;40891;47.242;8.648;2022-09-23T05:55:58;11.57;;;7.93;;
54993;SDS011;40891;47.242;8.648;2022-09-23T05:58:23;12.20;;;7.63;;
54993;SDS011;40891;47.242;8.648;2022-09-23T06:00:49;12.73;;;7.43;;
54993;SDS011;40891;47.242;8.648;2022-09-23T06:03:16;8.90;;;7.00;;
54993;SDS011;40891;47.242;8.648;2022-09-23T06:05:44;10.87;;;7.07;;
54993;SDS011;40891;47.242;8.648;2022-09-23T06:08:11;12.83;;;7.87;;
54993;SDS011;40891;47.242;8.648;2022-09-23T06:10:37;15.57;;;7.83;;
54993;SDS011;40891;47.242;8.648;2022-09-23T06:13:03;14.43;;;7.57;;
54993;SDS011;40891;47.242;8.648;2022-09-23T06:15:28;11.07;;;7.70;;
54993;SDS011;40891;47.242;8.648;2022-09-23T06:17:54;10.43;;;7.53;;
54993;SDS011;40891;47.242;8.648;2022-09-23T06:20:19;10.43;;;7.20;;
54993;SDS011;40891;47.242;8.648;2022-09-23T06:22:45;10.40;;;7.43;;
54993;SDS011;40891;47.242;8.648;2022-09-23T06:25:10;13.90;;;7.23;;
54993;SDS011;40891;47.242;8.648;2022-09-23T06:27:36;8.97;;;7.27;;
54993;SDS011;40891;47.242;8.648;2022-09-23T06:30:02;18.53;;;6.90;;
54993;SDS011;40891;47.242;8.648;2022-09-23T06:32:28;8.60;;;6.40;;
54993;SDS011;40891;47.242;8.648;2022-09-23T06:34:53;11.83;;;6.07;;
54993;SDS011;40891;47.242;8.648;2022-09-23T06:37:18;10.47;;;6.40;;
54993;SDS011;40891;47.242;8.648;2022-09-23T06:39:44;7.23;;;5.50;;
54993;SDS011;40891;47.242;8.648;2022-09-23T06:42:10;13.00;;;5.53;;
54993;SDS011;40891;47.242;8.648;2022-09-23T06:44:35;7.00;;;5.47;;
54993;SDS011;40891;47.242;8.648;2022-09-23T06:47:00;8.47;;;4.97;;
54993;SDS011;40891;47.242;8.648;2022-09-23T06:49:25;11.80;;;5.33;;
54993;SDS011;40891;47.242;8.648;2022-09-23T06:51:51;7.73;;;4.50;;
54993;SDS011;40891;47.242;8.648;2022-09-23T06:54:16;7.37;;;4.53;;
54993;SDS011;40891;47.242;8.648;2022-09-23T06:56:42;7.20;;;4.83;;
54993;SDS011;40891;47.242;8.648;2022-09-23T06:59:11;7.17;;;4.67;;
54993;SDS011;40891;47.242;8.648;2022-09-23T07:01:39;6.40;;;4.73;;
54993;SDS011;40891;47.242;8.648;2022-09-23T07:04:05;8.60;;;5.40;;
54993;SDS011;40891;47.242;8.648;2022-09-23T07:06:31;9.20;;;5.63;;
54993;SDS011;40891;47.242;8.648;2022-09-23T07:08:56;7.50;;;4.33;;
54993;SDS011;40891;47.242;8.648;2022-09-23T07:11:22;8.10;;;3.93;;
54993;SDS011;40891;47.242;8.648;2022-09-23T07:13:47;6.60;;;3.93;;
54993;SDS011;40891;47.242;8.648;2022-09-23T07:16:12;9.10;;;4.03;;
54993;SDS011;40891;47.242;8.648;2022-09-23T07:18:38;4.50;;;3.63;;
54993;SDS011;40891;47.242;8.648;2022-09-23T07:21:08;5.73;;;4.10;;
54993;SDS011;40891;47.242;8.648;2022-09-23T07:23:38;5.83;;;3.97;;
54993;SDS011;40891;47.242;8.648;2022-09-23T07:26:03;5.63;;;3.90;;
54993;SDS011;40891;47.242;8.648;2022-09-23T07:28:29;5.70;;;4.10;;
54993;SDS011;40891;47.242;8.648;2022-09-23T07:30:55;6.90;;;3.87;;
54993;SDS011;40891;47.242;8.648;2022-09-23T07:33:21;7.07;;;4.03;;
54993;SDS011;40891;47.242;8.648;2022-09-23T07:35:46;6.13;;;3.60;;
54993;SDS011;40891;47.242;8.648;2022-09-23T07:38:11;6.53;;;3.77;;
54993;SDS011;40891;47.242;8.648;2022-09-23T07:40:37;7.77;;;3.57;;
54993;SDS011;40891;47.242;8.648;2022-09-23T07:43:03;6.33;;;4.00;;
54993;SDS011;40891;47.242;8.648;2022-09-23T07:45:30;7.83;;;3.77;;
54993;SDS011;40891;47.242;8.648;2022-09-23T07:47:57;10.83;;;3.87;;
54993;SDS011;40891;47.242;8.648;2022-09-23T07:50:22;6.13;;;3.70;;
54993;SDS011;40891;47.242;8.648;2022-09-23T07:52:47;5.50;;;3.97;;
54993;SDS011;40891;47.242;8.648;2022-09-23T07:55:17;6.70;;;3.53;;
54993;SDS011;40891;47.242;8.648;2022-09-23T07:57:43;4.17;;;3.70;;
54993;SDS011;40891;47.242;8.648;2022-09-23T08:00:09;4.80;;;3.65;;
54993;SDS011;40891;47.242;8.648;2022-09-23T08:02:37;4.82;;;3.88;;
54993;SDS011;40891;47.242;8.648;2022-09-23T08:05:02;6.43;;;3.83;;
54993;SDS011;40891;47.242;8.648;2022-09-23T08:07:29;6.93;;;4.00;;
54993;SDS011;40891;47.242;8.648;2022-09-23T08:09:58;6.88;;;3.90;;
54993;SDS011;40891;47.242;8.648;2022-09-23T08:12:24;7.40;;;4.03;;
54993;SDS011;40891;47.242;8.648;2022-09-23T08:14:49;4.93;;;3.80;;
54993;SDS011;40891;47.242;8.648;2022-09-23T08:17:14;7.72;;;3.33;;
54993;SDS011;40891;47.242;8.648;2022-09-23T08:19:39;6.78;;;3.50;;
54993;SDS011;40891;47.242;8.648;2022-09-23T08:22:05;9.18;;;4.13;;
54993;SDS011;40891;47.242;8.648;2022-09-23T08:24:30;8.10;;;4.00;;
54993;SDS011;40891;47.242;8.648;2022-09-23T08:26:56;5.45;;;3.42;;
54993;SDS011;40891;47.242;8.648;2022-09-23T08:29:22;8.07;;;3.92;;
54993;SDS011;40891;47.242;8.648;2022-09-23T08:31:49;7.78;;;3.35;;
54993;SDS011;40891;47.242;8.648;2022-09-23T08:34:15;4.07;;;3.50;;
54993;SDS011;40891;47.242;8.648;2022-09-23T08:36:42;4.38;;;3.47;;
54993;SDS011;40891;47.242;8.648;2022-09-23T08:39:08;5.13;;;3.10;;
54993;SDS011;40891;47.242;8.648;2022-09-23T08:41:38;3.30;;;3.00;;
54993;SDS011;40891;47.242;8.648;2022-09-23T08:44:22;4.80;;;3.25;;
54993;SDS011;40891;47.242;8.648;2022-09-23T08:49:22;7.97;;;3.80;;
54993;SDS011;40891;47.242;8.648;2022-09-23T08:51:54;4.97;;;3.43;;
54993;SDS011;40891;47.242;8.648;2022-09-23T08:54:29;4.28;;;3.13;;
54993;SDS011;40891;47.242;8.648;2022-09-23T08:56:55;6.53;;;3.08;;
54993;SDS011;40891;47.242;8.648;2022-09-23T08:59:28;6.15;;;3.28;;
54993;SDS011;40891;47.242;8.648;2022-09-23T09:02:08;8.30;;;2.90;;
54993;SDS011;40891;47.242;8.648;2022-09-23T09:04:42;6.20;;;2.97;;
54993;SDS011;40891;47.242;8.648;2022-09-23T09:17:35;4.93;;;2.22;;
54993;SDS011;40891;47.242;8.648;2022-09-23T09:23:04;3.25;;;2.15;;
54993;SDS011;40891;47.242;8.648;2022-09-23T09:25:59;4.03;;;2.28;;
54993;SDS011;40891;47.242;8.648;2022-09-23T09:28:32;2.47;;;2.28;;
54993;SDS011;40891;47.242;8.648;2022-09-23T09:33:56;3.72;;;2.38;;
54993;SDS011;40891;47.242;8.648;2022-09-23T09:38:59;3.55;;;2.15;;
54993;SDS011;40891;47.242;8.648;2022-09-23T09:41:26;3.47;;;2.33;;
54993;SDS011;40891;47.242;8.648;2022-09-23T09:43:55;2.45;;;2.10;;
54993;SDS011;40891;47.242;8.648;2022-09-23T09:51:34;4.28;;;2.63;;
54993;SDS011;40891;47.242;8.648;2022-09-23T09:54:22;4.35;;;2.20;;
54993;SDS011;40891;47.242;8.648;2022-09-23T09:56:50;2.78;;;2.22;;
54993;SDS011;40891;47.242;8.648;2022-09-23T09:59:26;4.95;;;3.00;;
54993;SDS011;40891;47.242;8.648;2022-09-23T10:05:01;8.60;;;4.20;;
54993;SDS011;40891;47.242;8.648;2022-09-23T10:07:30;3.65;;;2.40;;
54993;SDS011;40891;47.242;8.648;2022-09-23T10:09:57;5.28;;;2.80;;
54993;SDS011;40891;47.242;8.648;2022-09-23T10:12:43;7.85;;;3.60;;
54993;SDS011;40891;47.242;8.648;2022-09-23T10:15:39;8.73;;;3.45;;
54993;SDS011;40891;47.242;8.648;2022-09-23T10:18:17;8.15;;;3.42;;
54993;SDS011;40891;47.242;8.648;2022-09-23T10:20:44;5.65;;;2.67;;
54993;SDS011;40891;47.242;8.648;2022-09-23T10:23:13;4.32;;;2.55;;
54993;SDS011;40891;47.242;8.648;2022-09-23T10:25:45;3.17;;;2.20;;
54993;SDS011;40891;47.242;8.648;2022-09-23T10:31:07;7.25;;;3.40;;
54993;SDS011;40891;47.242;8.648;2022-09-23T10:33:47;6.28;;;2.83;;
54993;SDS011;40891;47.242;8.648;2022-09-23T10:36:14;5.53;;;2.30;;
54993;SDS011;40891;47.242;8.648;2022-09-23T10:38:41;11.48;;;3.13;;
54993;SDS011;40891;47.242;8.648;2022-09-23T10:41:16;3.08;;;1.58;;
54993;SDS011;40891;47.242;8.648;2022-09-23T11:01:25;5.18;;;2.67;;
54993;SDS011;40891;47.242;8.648;2022-09-23T11:04:13;6.72;;;3.47;;
54993;SDS011;40891;47.242;8.648;2022-09-23T11:12:26;4.38;;;2.17;;
54993;SDS011;40891;47.242;8.648;2022-09-23T11:20:55;3.72;;;2.50;;
54993;SDS011;40891;47.242;8.648;2022-09-23T11:34:54;4.47;;;3.53;;
54993;SDS011;40891;47.242;8.648;2022-09-23T11:37:35;4.30;;;3.38;;
54993;SDS011;40891;47.242;8.648;2022-09-23T11:43:27;4.43;;;2.70;;
54993;SDS011;40891;47.242;8.648;2022-09-23T11:45:55;4.35;;;2.65;;
54993;SDS011;40891;47.242;8.648;2022-09-23T11:48:44;3.45;;;2.63;;
54993;SDS011;40891;47.242;8.648;2022-09-23T11:51:15;5.25;;;2.70;;
54993;SDS011;40891;47.242;8.648;2022-09-23T11:53:48;5.65;;;2.88;;
54993;SDS011;40891;47.242;8.648;2022-09-23T11:56:30;3.95;;;2.92;;
54993;SDS011;40891;47.242;8.648;2022-09-23T11:59:13;6.00;;;3.15;;
54993;SDS011;40891;47.242;8.648;2022-09-23T12:01:47;6.40;;;3.40;;
54993;SDS011;40891;47.242;8.648;2022-09-23T12:04:25;5.28;;;2.67;;
54993;SDS011;40891;47.242;8.648;2022-09-23T12:07:09;3.47;;;2.65;;
54993;SDS011;40891;47.242;8.648;2022-09-23T12:20:39;7.10;;;3.13;;
54993;SDS011;40891;47.242;8.648;2022-09-23T12:25:56;4.50;;;3.20;;
54993;SDS011;40891;47.242;8.648;2022-09-23T12:28:27;6.07;;;2.70;;
54993;SDS011;40891;47.242;8.648;2022-09-23T12:30:57;4.50;;;2.80;;
54993;SDS011;40891;47.242;8.648;2022-09-23T12:33:26;5.57;;;2.80;;
54993;SDS011;40891;47.242;8.648;2022-09-23T12:35:54;5.65;;;3.10;;
54993;SDS011;40891;47.242;8.648;2022-09-23T12:38:36;5.93;;;3.25;;
54993;SDS011;40891;47.242;8.648;2022-09-23T12:41:24;5.70;;;2.90;;
54993;SDS011;40891;47.242;8.648;2022-09-23T12:46:43;5.63;;;3.10;;
54993;SDS011;40891;47.242;8.648;2022-09-23T12:52:10;6.25;;;3.15;;
54993;SDS011;40891;47.242;8.648;2022-09-23T12:54:37;4.03;;;2.60;;
54993;SDS011;40891;47.242;8.648;2022-09-23T12:59:53;4.05;;;2.50;;
54993;SDS011;40891;47.242;8.648;2022-09-23T13:05:24;5.23;;;2.93;;
54993;SDS011;40891;47.242;8.648;2022-09-23T13:08:16;3.78;;;2.60;;
54993;SDS011;40891;47.242;8.648;2022-09-23T13:10:54;5.47;;;2.58;;
54993;SDS011;40891;47.242;8.648;2022-09-23T13:13:24;5.60;;;2.55;;
54993;SDS011;40891;47.242;8.648;2022-09-23T13:15:56;3.50;;;2.50;;
54993;SDS011;40891;47.242;8.648;2022-09-23T13:18:48;4.18;;;2.40;;
54993;SDS011;40891;47.242;8.648;2022-09-23T13:21:16;7.00;;;2.80;;
54993;SDS011;40891;47.242;8.648;2022-09-23T13:24:09;4.82;;;2.50;;
54993;SDS011;40891;47.242;8.648;2022-09-23T13:26:46;4.50;;;2.50;;
54993;SDS011;40891;47.242;8.648;2022-09-23T13:29:27;5.07;;;2.60;;
54993;SDS011;40891;47.242;8.648;2022-09-23T13:31:59;6.60;;;2.50;;
54993;SDS011;40891;47.242;8.648;2022-09-23T13:34:30;4.30;;;2.20;;
54993;SDS011;40891;47.242;8.648;2022-09-23T13:37:09;4.28;;;2.20;;
54993;SDS011;40891;47.242;8.648;2022-09-23T13:39:43;4.47;;;2.50;;
54993;SDS011;40891;47.242;8.648;2022-09-23T13:42:08;5.97;;;2.60;;
54993;SDS011;40891;47.242;8.648;2022-09-23T13:44:43;4.25;;;2.50;;
54993;SDS011;40891;47.242;8.648;2022-09-23T13:47:09;3.50;;;2.50;;
54993;SDS011;40891;47.242;8.648;2022-09-23T13:49:37;8.45;;;2.75;;
54993;SDS011;40891;47.242;8.648;2022-09-23T13:52:04;5.05;;;2.60;;
54993;SDS011;40891;47.242;8.648;2022-09-23T13:56:57;6.80;;;2.55;;
54993;SDS011;40891;47.242;8.648;2022-09-23T13:59:36;3.83;;;2.55;;
54993;SDS011;40891;47.242;8.648;2022-09-23T14:02:09;3.70;;;2.20;;
54993;SDS011;40891;47.242;8.648;2022-09-23T14:04:37;6.20;;;2.47;;
54993;SDS011;40891;47.242;8.648;2022-09-23T14:07:02;6.43;;;2.47;;
54993;SDS011;40891;47.242;8.648;2022-09-23T14:09:30;5.45;;;2.47;;
54993;SDS011;40891;47.242;8.648;2022-09-23T14:11:59;3.35;;;1.98;;
54993;SDS011;40891;47.242;8.648;2022-09-23T14:14:26;5.78;;;2.50;;
54993;SDS011;40891;47.242;8.648;2022-09-23T14:16:54;5.53;;;2.65;;
54993;SDS011;40891;47.242;8.648;2022-09-23T14:19:21;7.00;;;2.50;;
54993;SDS011;40891;47.242;8.648;2022-09-23T14:21:51;3.38;;;2.13;;
54993;SDS011;40891;47.242;8.648;2022-09-23T14:26:51;4.05;;;2.10;;
54993;SDS011;40891;47.242;8.648;2022-09-23T14:29:23;4.72;;;2.13;;
54993;SDS011;40891;47.242;8.648;2022-09-23T14:31:54;2.92;;;2.25;;
54993;SDS011;40891;47.242;8.648;2022-09-23T14:37:29;5.70;;;2.63;;
54993;SDS011;40891;47.242;8.648;2022-09-23T14:40:17;6.20;;;2.10;;
54993;SDS011;40891;47.242;8.648;2022-09-23T14:42:45;5.72;;;2.15;;
54993;SDS011;40891;47.242;8.648;2022-09-23T14:45:20;2.90;;;2.05;;
54993;SDS011;40891;47.242;8.648;2022-09-23T14:47:52;7.15;;;2.33;;
54993;SDS011;40891;47.242;8.648;2022-09-23T14:50:23;4.07;;;2.30;;
54993;SDS011;40891;47.242;8.648;2022-09-23T14:53:01;6.38;;;2.28;;
54993;SDS011;40891;47.242;8.648;2022-09-23T14:55:28;3.88;;;1.90;;
54993;SDS011;40891;47.242;8.648;2022-09-23T14:58:02;5.47;;;2.22;;
54993;SDS011;40891;47.242;8.648;2022-09-23T15:00:29;5.60;;;2.20;;
54993;SDS011;40891;47.242;8.648;2022-09-23T15:02:59;4.93;;;2.25;;
54993;SDS011;40891;47.242;8.648;2022-09-23T15:07:56;6.20;;;2.10;;
54993;SDS011;40891;47.242;8.648;2022-09-23T15:10:29;4.40;;;2.00;;
54993;SDS011;40891;47.242;8.648;2022-09-23T15:13:06;2.90;;;2.17;;
54993;SDS011;40891;47.242;8.648;2022-09-23T15:15:36;3.95;;;2.40;;
54993;SDS011;40891;47.242;8.648;2022-09-23T15:18:02;5.25;;;2.00;;
54993;SDS011;40891;47.242;8.648;2022-09-23T15:20:38;4.32;;;2.25;;
54993;SDS011;40891;47.242;8.648;2022-09-23T15:23:04;5.55;;;2.80;;
54993;SDS011;40891;47.242;8.648;2022-09-23T15:25:30;4.38;;;2.65;;
54993;SDS011;40891;47.242;8.648;2022-09-23T15:30:37;5.25;;;2.60;;
54993;SDS011;40891;47.242;8.648;2022-09-23T15:33:03;2.85;;;2.13;;
54993;SDS011;40891;47.242;8.648;2022-09-23T15:35:29;3.95;;;2.30;;
54993;SDS011;40891;47.242;8.648;2022-09-23T15:37:58;5.18;;;2.58;;
54993;SDS011;40891;47.242;8.648;2022-09-23T15:40:27;5.22;;;2.90;;
54993;SDS011;40891;47.242;8.648;2022-09-23T15:42:53;5.13;;;2.42;;
54993;SDS011;40891;47.242;8.648;2022-09-23T15:45:25;5.57;;;2.45;;
54993;SDS011;40891;47.242;8.648;2022-09-23T15:47:53;8.00;;;2.78;;
54993;SDS011;40891;47.242;8.648;2022-09-23T15:50:22;8.23;;;2.88;;
54993;SDS011;40891;47.242;8.648;2022-09-23T15:52:47;2.92;;;2.20;;
54993;SDS011;40891;47.242;8.648;2022-09-23T15:55:17;4.90;;;2.58;;
54993;SDS011;40891;47.242;8.648;2022-09-23T15:57:45;4.05;;;2.50;;
54993;SDS011;40891;47.242;8.648;2022-09-23T16:00:12;6.47;;;2.45;;
54993;SDS011;40891;47.242;8.648;2022-09-23T16:02:39;4.80;;;2.45;;
54993;SDS011;40891;47.242;8.648;2022-09-23T16:05:08;6.38;;;2.63;;
54993;SDS011;40891;47.242;8.648;2022-09-23T16:07:42;5.47;;;3.08;;
54993;SDS011;40891;47.242;8.648;2022-09-23T16:10:08;5.70;;;2.50;;
54993;SDS011;40891;47.242;8.648;2022-09-23T16:12:33;4.78;;;2.40;;
54993;SDS011;40891;47.242;8.648;2022-09-23T16:14:58;3.63;;;2.40;;
54993;SDS011;40891;47.242;8.648;2022-09-23T16:17:24;6.22;;;2.65;;
54993;SDS011;40891;47.242;8.648;2022-09-23T16:19:52;6.68;;;2.15;;
54993;SDS011;40891;47.242;8.648;2022-09-23T16:22:17;5.95;;;3.10;;
54993;SDS011;40891;47.242;8.648;2022-09-23T16:24:43;5.57;;;2.20;;
54993;SDS011;40891;47.242;8.648;2022-09-23T16:27:08;6.47;;;2.40;;
54993;SDS011;40891;47.242;8.648;2022-09-23T16:29:39;4.32;;;2.15;;
54993;SDS011;40891;47.242;8.648;2022-09-23T16:32:04;6.97;;;1.90;;
54993;SDS011;40891;47.242;8.648;2022-09-23T16:34:29;4.90;;;2.20;;
54993;SDS011;40891;47.242;8.648;2022-09-23T16:36:55;5.20;;;2.28;;
54993;SDS011;40891;47.242;8.648;2022-09-23T16:39:20;5.80;;;2.50;;
54993;SDS011;40891;47.242;8.648;2022-09-23T16:41:46;8.23;;;3.00;;
54993;SDS011;40891;47.242;8.648;2022-09-23T16:44:12;5.72;;;3.03;;
54993;SDS011;40891;47.242;8.648;2022-09-23T16:46:38;6.97;;;3.17;;
54993;SDS011;40891;47.242;8.648;2022-09-23T16:49:06;4.85;;;2.40;;
54993;SDS011;40891;47.242;8.648;2022-09-23T16:51:32;4.47;;;2.80;;
54993;SDS011;40891;47.242;8.648;2022-09-23T16:54:05;4.88;;;2.55;;
54993;SDS011;40891;47.242;8.648;2022-09-23T16:56:36;6.53;;;2.55;;
54993;SDS011;40891;47.242;8.648;2022-09-23T16:59:02;7.10;;;2.65;;
54993;SDS011;40891;47.242;8.648;2022-09-23T17:01:28;5.60;;;2.30;;
54993;SDS011;40891;47.242;8.648;2022-09-23T17:04:12;7.15;;;2.95;;
54993;SDS011;40891;47.242;8.648;2022-09-23T17:06:43;5.20;;;2.78;;
54993;SDS011;40891;47.242;8.648;2022-09-23T17:09:11;4.80;;;2.70;;
54993;SDS011;40891;47.242;8.648;2022-09-23T17:11:36;4.10;;;2.42;;
54993;SDS011;40891;47.242;8.648;2022-09-23T17:14:02;6.38;;;2.65;;
54993;SDS011;40891;47.242;8.648;2022-09-23T17:16:29;7.18;;;3.80;;
54993;SDS011;40891;47.242;8.648;2022-09-23T17:18:56;5.70;;;3.10;;
54993;SDS011;40891;47.242;8.648;2022-09-23T17:21:26;3.13;;;2.70;;
54993;SDS011;40891;47.242;8.648;2022-09-23T17:23:55;3.03;;;2.78;;
54993;SDS011;40891;47.242;8.648;2022-09-23T17:26:22;7.97;;;3.28;;
54993;SDS011;40891;47.242;8.648;2022-09-23T17:28:49;14.18;;;4.70;;
54993;SDS011;40891;47.242;8.648;2022-09-23T17:31:15;7.65;;;3.75;;